Terminal Aerodrome Forecast
Issued by NWS

Home | Current Version | Previous Version | Text Only | Print | Product List | Glossary On
Versions: 1 2 3 4 5 6 7 8 9 10 11 12 13 14
000
FTUS45 KGJT 161121 AAA
TAFTEX
TAF AMD
KTEX 161121Z 1611/1706 13005KT P6SM SKC
     FM162000 27004KT P6SM SKC
     FM170100 13004KT P6SM FEW250=

USA.gov is the U.S. government's official web portal to all federal, state and local government web resources and services.